sensor_id;sensor_type;location;lat;lon;timestamp;P1;durP1;ratioP1;P2;durP2;ratioP2
58015;SDS011;43809;52.110;20.964;2023-02-10T00:01:29;24.67;;;12.00;;
58015;SDS011;43809;52.110;20.964;2023-02-10T00:03:29;28.45;;;11.13;;
58015;SDS011;43809;52.110;20.964;2023-02-10T00:05:30;25.15;;;11.65;;
58015;SDS011;43809;52.110;20.964;2023-02-10T00:07:30;28.98;;;11.45;;
58015;SDS011;43809;52.110;20.964;2023-02-10T00:09:30;31.13;;;13.50;;
58015;SDS011;43809;52.110;20.964;2023-02-10T00:11:31;26.08;;;12.13;;
58015;SDS011;43809;52.110;20.964;2023-02-10T00:13:49;27.48;;;12.05;;
58015;SDS011;43809;52.110;20.964;2023-02-10T00:15:50;26.60;;;12.18;;
58015;SDS011;43809;52.110;20.964;2023-02-10T00:17:50;26.70;;;11.73;;
58015;SDS011;43809;52.110;20.964;2023-02-10T00:19:50;29.55;;;13.15;;
58015;SDS011;43809;52.110;20.964;2023-02-10T00:21:50;28.35;;;12.73;;
58015;SDS011;43809;52.110;20.964;2023-02-10T00:23:51;29.05;;;12.82;;
58015;SDS011;43809;52.110;20.964;2023-02-10T00:25:51;28.27;;;13.43;;
58015;SDS011;43809;52.110;20.964;2023-02-10T00:27:51;26.95;;;12.25;;
58015;SDS011;43809;52.110;20.964;2023-02-10T00:29:51;27.00;;;12.40;;
58015;SDS011;43809;52.110;20.964;2023-02-10T00:31:52;29.50;;;12.88;;
58015;SDS011;43809;52.110;20.964;2023-02-10T00:33:52;28.70;;;13.38;;
58015;SDS011;43809;52.110;20.964;2023-02-10T00:35:52;32.70;;;13.80;;
58015;SDS011;43809;52.110;20.964;2023-02-10T00:37:53;26.70;;;12.60;;
58015;SDS011;43809;52.110;20.964;2023-02-10T00:39:53;30.30;;;13.98;;
58015;SDS011;43809;52.110;20.964;2023-02-10T00:41:55;24.77;;;12.30;;
58015;SDS011;43809;52.110;20.964;2023-02-10T00:43:55;27.65;;;13.10;;
58015;SDS011;43809;52.110;20.964;2023-02-10T00:45:55;27.95;;;12.40;;
58015;SDS011;43809;52.110;20.964;2023-02-10T00:47:55;28.55;;;12.18;;
58015;SDS011;43809;52.110;20.964;2023-02-10T00:49:55;28.58;;;13.07;;
58015;SDS011;43809;52.110;20.964;2023-02-10T00:51:55;24.60;;;11.23;;
58015;SDS011;43809;52.110;20.964;2023-02-10T00:53:57;29.20;;;12.35;;
58015;SDS011;43809;52.110;20.964;2023-02-10T00:55:57;26.45;;;11.40;;
58015;SDS011;43809;52.110;20.964;2023-02-10T00:57:57;25.55;;;11.10;;
58015;SDS011;43809;52.110;20.964;2023-02-10T00:59:57;29.98;;;11.95;;
58015;SDS011;43809;52.110;20.964;2023-02-10T01:01:57;23.35;;;12.02;;
58015;SDS011;43809;52.110;20.964;2023-02-10T01:03:58;23.95;;;10.93;;
58015;SDS011;43809;52.110;20.964;2023-02-10T01:05:58;22.10;;;10.82;;
58015;SDS011;43809;52.110;20.964;2023-02-10T01:07:58;28.52;;;12.70;;
58015;SDS011;43809;52.110;20.964;2023-02-10T01:09:58;24.33;;;11.25;;
58015;SDS011;43809;52.110;20.964;2023-02-10T01:11:58;25.02;;;11.18;;
58015;SDS011;43809;52.110;20.964;2023-02-10T01:13:59;28.02;;;11.63;;
58015;SDS011;43809;52.110;20.964;2023-02-10T01:15:59;25.48;;;10.55;;
58015;SDS011;43809;52.110;20.964;2023-02-10T01:17:59;25.88;;;11.88;;
58015;SDS011;43809;52.110;20.964;2023-02-10T01:20:00;26.10;;;11.13;;
58015;SDS011;43809;52.110;20.964;2023-02-10T01:22:00;23.58;;;11.10;;
58015;SDS011;43809;52.110;20.964;2023-02-10T01:24:00;25.42;;;11.80;;
58015;SDS011;43809;52.110;20.964;2023-02-10T01:26:00;26.23;;;11.98;;
58015;SDS011;43809;52.110;20.964;2023-02-10T01:28:01;27.35;;;11.77;;
58015;SDS011;43809;52.110;20.964;2023-02-10T01:30:01;22.88;;;10.55;;
58015;SDS011;43809;52.110;20.964;2023-02-10T01:32:02;23.17;;;11.30;;
58015;SDS011;43809;52.110;20.964;2023-02-10T01:34:02;24.52;;;11.05;;
58015;SDS011;43809;52.110;20.964;2023-02-10T01:36:06;24.52;;;10.98;;
58015;SDS011;43809;52.110;20.964;2023-02-10T01:38:06;29.10;;;12.80;;
58015;SDS011;43809;52.110;20.964;2023-02-10T01:40:06;25.10;;;11.77;;
58015;SDS011;43809;52.110;20.964;2023-02-10T01:42:08;24.85;;;10.95;;
58015;SDS011;43809;52.110;20.964;2023-02-10T01:46:21;25.88;;;11.18;;
58015;SDS011;43809;52.110;20.964;2023-02-10T01:48:21;22.65;;;11.45;;
58015;SDS011;43809;52.110;20.964;2023-02-10T01:50:23;30.30;;;12.90;;
58015;SDS011;43809;52.110;20.964;2023-02-10T01:52:24;26.65;;;12.63;;
58015;SDS011;43809;52.110;20.964;2023-02-10T01:54:27;27.03;;;11.97;;
58015;SDS011;43809;52.110;20.964;2023-02-10T01:56:29;28.02;;;12.35;;
58015;SDS011;43809;52.110;20.964;2023-02-10T01:58:30;28.33;;;12.27;;
58015;SDS011;43809;52.110;20.964;2023-02-10T02:00:32;28.05;;;12.35;;
58015;SDS011;43809;52.110;20.964;2023-02-10T02:02:32;26.05;;;12.05;;
58015;SDS011;43809;52.110;20.964;2023-02-10T02:06:35;27.38;;;11.50;;
58015;SDS011;43809;52.110;20.964;2023-02-10T02:08:35;27.05;;;12.57;;
58015;SDS011;43809;52.110;20.964;2023-02-10T02:12:41;25.88;;;11.82;;
58015;SDS011;43809;52.110;20.964;2023-02-10T02:14:52;29.23;;;13.02;;
58015;SDS011;43809;52.110;20.964;2023-02-10T02:19:16;27.55;;;12.50;;
58015;SDS011;43809;52.110;20.964;2023-02-10T02:23:44;24.83;;;11.38;;
58015;SDS011;43809;52.110;20.964;2023-02-10T02:28:01;24.48;;;12.07;;
58015;SDS011;43809;52.110;20.964;2023-02-10T02:32:12;31.38;;;12.68;;
58015;SDS011;43809;52.110;20.964;2023-02-10T02:34:21;25.90;;;11.05;;
58015;SDS011;43809;52.110;20.964;2023-02-10T02:36:28;25.73;;;11.48;;
58015;SDS011;43809;52.110;20.964;2023-02-10T02:38:36;22.70;;;11.23;;
58015;SDS011;43809;52.110;20.964;2023-02-10T02:40:36;28.52;;;13.32;;
58015;SDS011;43809;52.110;20.964;2023-02-10T02:42:36;28.77;;;12.30;;
58015;SDS011;43809;52.110;20.964;2023-02-10T02:44:37;26.27;;;12.20;;
58015;SDS011;43809;52.110;20.964;2023-02-10T02:50:49;23.58;;;11.13;;
58015;SDS011;43809;52.110;20.964;2023-02-10T02:55:09;26.75;;;11.88;;
58015;SDS011;43809;52.110;20.964;2023-02-10T02:57:15;25.40;;;11.18;;
58015;SDS011;43809;52.110;20.964;2023-02-10T02:59:32;31.52;;;14.25;;
58015;SDS011;43809;52.110;20.964;2023-02-10T03:01:35;23.15;;;11.38;;
58015;SDS011;43809;52.110;20.964;2023-02-10T03:03:36;26.38;;;12.23;;
58015;SDS011;43809;52.110;20.964;2023-02-10T03:05:36;26.02;;;12.35;;
58015;SDS011;43809;52.110;20.964;2023-02-10T03:07:37;28.40;;;12.60;;
58015;SDS011;43809;52.110;20.964;2023-02-10T03:09:37;26.05;;;11.75;;
58015;SDS011;43809;52.110;20.964;2023-02-10T03:11:38;28.73;;;13.55;;
58015;SDS011;43809;52.110;20.964;2023-02-10T03:13:38;26.33;;;12.02;;
58015;SDS011;43809;52.110;20.964;2023-02-10T03:15:38;31.75;;;13.10;;
58015;SDS011;43809;52.110;20.964;2023-02-10T03:17:38;24.83;;;12.02;;
58015;SDS011;43809;52.110;20.964;2023-02-10T03:19:38;24.23;;;11.82;;
58015;SDS011;43809;52.110;20.964;2023-02-10T03:21:39;24.98;;;11.48;;
58015;SDS011;43809;52.110;20.964;2023-02-10T03:23:39;26.95;;;12.35;;
58015;SDS011;43809;52.110;20.964;2023-02-10T03:25:39;27.40;;;11.60;;
58015;SDS011;43809;52.110;20.964;2023-02-10T03:27:39;24.85;;;12.60;;
58015;SDS011;43809;52.110;20.964;2023-02-10T03:29:41;26.25;;;12.65;;
58015;SDS011;43809;52.110;20.964;2023-02-10T03:31:42;27.33;;;13.65;;
58015;SDS011;43809;52.110;20.964;2023-02-10T03:33:42;28.90;;;12.13;;
58015;SDS011;43809;52.110;20.964;2023-02-10T03:35:42;28.30;;;13.02;;
58015;SDS011;43809;52.110;20.964;2023-02-10T03:37:43;26.60;;;13.00;;
58015;SDS011;43809;52.110;20.964;2023-02-10T03:39:43;24.60;;;12.10;;
58015;SDS011;43809;52.110;20.964;2023-02-10T03:41:43;26.17;;;12.05;;
58015;SDS011;43809;52.110;20.964;2023-02-10T03:43:43;31.55;;;13.13;;
58015;SDS011;43809;52.110;20.964;2023-02-10T03:45:43;26.98;;;13.95;;
58015;SDS011;43809;52.110;20.964;2023-02-10T03:47:44;28.95;;;12.30;;
58015;SDS011;43809;52.110;20.964;2023-02-10T03:49:44;24.75;;;11.45;;
58015;SDS011;43809;52.110;20.964;2023-02-10T03:51:44;21.13;;;10.38;;
58015;SDS011;43809;52.110;20.964;2023-02-10T03:53:44;23.70;;;11.77;;
58015;SDS011;43809;52.110;20.964;2023-02-10T03:55:44;25.05;;;11.02;;
58015;SDS011;43809;52.110;20.964;2023-02-10T03:57:45;29.27;;;12.10;;
58015;SDS011;43809;52.110;20.964;2023-02-10T03:59:45;22.17;;;10.23;;
58015;SDS011;43809;52.110;20.964;2023-02-10T04:01:45;25.50;;;11.50;;
58015;SDS011;43809;52.110;20.964;2023-02-10T04:03:46;26.42;;;12.27;;
58015;SDS011;43809;52.110;20.964;2023-02-10T04:05:46;25.67;;;12.50;;
58015;SDS011;43809;52.110;20.964;2023-02-10T04:07:46;22.58;;;11.48;;
58015;SDS011;43809;52.110;20.964;2023-02-10T04:09:46;25.48;;;11.60;;
58015;SDS011;43809;52.110;20.964;2023-02-10T04:11:47;27.50;;;12.60;;
58015;SDS011;43809;52.110;20.964;2023-02-10T04:13:47;24.85;;;12.07;;
58015;SDS011;43809;52.110;20.964;2023-02-10T04:15:47;25.73;;;13.15;;
58015;SDS011;43809;52.110;20.964;2023-02-10T04:17:48;25.50;;;11.40;;
58015;SDS011;43809;52.110;20.964;2023-02-10T04:19:48;28.10;;;12.70;;
58015;SDS011;43809;52.110;20.964;2023-02-10T04:21:48;26.17;;;12.20;;
58015;SDS011;43809;52.110;20.964;2023-02-10T04:23:48;26.23;;;12.57;;
58015;SDS011;43809;52.110;20.964;2023-02-10T04:25:48;26.10;;;12.38;;
58015;SDS011;43809;52.110;20.964;2023-02-10T04:27:48;24.70;;;11.85;;
58015;SDS011;43809;52.110;20.964;2023-02-10T04:29:49;28.48;;;12.70;;
58015;SDS011;43809;52.110;20.964;2023-02-10T04:31:49;24.70;;;11.88;;
58015;SDS011;43809;52.110;20.964;2023-02-10T04:33:49;27.27;;;12.45;;
58015;SDS011;43809;52.110;20.964;2023-02-10T04:35:49;25.08;;;11.93;;
58015;SDS011;43809;52.110;20.964;2023-02-10T04:37:50;30.40;;;13.00;;
58015;SDS011;43809;52.110;20.964;2023-02-10T04:39:51;27.40;;;12.45;;
58015;SDS011;43809;52.110;20.964;2023-02-10T04:41:51;32.00;;;13.35;;
58015;SDS011;43809;52.110;20.964;2023-02-10T04:43:52;29.58;;;15.45;;
58015;SDS011;43809;52.110;20.964;2023-02-10T04:45:52;30.95;;;14.02;;
58015;SDS011;43809;52.110;20.964;2023-02-10T04:47:52;32.42;;;14.60;;
58015;SDS011;43809;52.110;20.964;2023-02-10T04:49:52;28.98;;;15.10;;
58015;SDS011;43809;52.110;20.964;2023-02-10T04:51:53;31.88;;;15.75;;
58015;SDS011;43809;52.110;20.964;2023-02-10T04:53:53;28.52;;;14.35;;
58015;SDS011;43809;52.110;20.964;2023-02-10T04:55:53;28.85;;;14.82;;
58015;SDS011;43809;52.110;20.964;2023-02-10T04:57:54;26.65;;;14.13;;
58015;SDS011;43809;52.110;20.964;2023-02-10T04:59:54;27.30;;;14.18;;
58015;SDS011;43809;52.110;20.964;2023-02-10T05:01:54;27.85;;;14.32;;
58015;SDS011;43809;52.110;20.964;2023-02-10T05:03:54;29.00;;;13.75;;
58015;SDS011;43809;52.110;20.964;2023-02-10T05:05:54;33.85;;;15.80;;
58015;SDS011;43809;52.110;20.964;2023-02-10T05:07:55;35.20;;;15.27;;
58015;SDS011;43809;52.110;20.964;2023-02-10T05:09:55;34.03;;;15.57;;
58015;SDS011;43809;52.110;20.964;2023-02-10T05:11:55;31.25;;;14.77;;
58015;SDS011;43809;52.110;20.964;2023-02-10T05:13:55;32.63;;;15.38;;
58015;SDS011;43809;52.110;20.964;2023-02-10T05:15:56;31.30;;;14.82;;
58015;SDS011;43809;52.110;20.964;2023-02-10T05:17:58;34.20;;;16.38;;
58015;SDS011;43809;52.110;20.964;2023-02-10T05:19:59;27.58;;;14.35;;
58015;SDS011;43809;52.110;20.964;2023-02-10T05:21:59;30.25;;;15.23;;
58015;SDS011;43809;52.110;20.964;2023-02-10T05:23:59;30.40;;;15.63;;
58015;SDS011;43809;52.110;20.964;2023-02-10T05:25:59;34.72;;;16.13;;
58015;SDS011;43809;52.110;20.964;2023-02-10T05:27:59;31.50;;;15.13;;
58015;SDS011;43809;52.110;20.964;2023-02-10T05:30:00;27.65;;;15.32;;
58015;SDS011;43809;52.110;20.964;2023-02-10T05:32:00;33.28;;;16.10;;
58015;SDS011;43809;52.110;20.964;2023-02-10T05:34:01;33.78;;;15.18;;
58015;SDS011;43809;52.110;20.964;2023-02-10T05:36:01;31.98;;;16.83;;
58015;SDS011;43809;52.110;20.964;2023-02-10T05:38:01;32.05;;;15.30;;
58015;SDS011;43809;52.110;20.964;2023-02-10T05:40:02;37.20;;;15.30;;
58015;SDS011;43809;52.110;20.964;2023-02-10T05:42:02;31.70;;;16.15;;
58015;SDS011;43809;52.110;20.964;2023-02-10T05:44:03;35.97;;;16.20;;
58015;SDS011;43809;52.110;20.964;2023-02-10T05:46:03;33.72;;;15.55;;
58015;SDS011;43809;52.110;20.964;2023-02-10T05:48:04;33.88;;;16.48;;
58015;SDS011;43809;52.110;20.964;2023-02-10T05:50:04;31.60;;;15.80;;
58015;SDS011;43809;52.110;20.964;2023-02-10T05:52:04;30.08;;;15.35;;
58015;SDS011;43809;52.110;20.964;2023-02-10T05:54:05;32.97;;;15.35;;
58015;SDS011;43809;52.110;20.964;2023-02-10T05:56:05;36.22;;;17.40;;
58015;SDS011;43809;52.110;20.964;2023-02-10T05:58:05;45.38;;;17.13;;
58015;SDS011;43809;52.110;20.964;2023-02-10T06:00:06;43.95;;;16.50;;
58015;SDS011;43809;52.110;20.964;2023-02-10T06:02:07;29.45;;;15.98;;
58015;SDS011;43809;52.110;20.964;2023-02-10T06:04:07;35.97;;;16.90;;
58015;SDS011;43809;52.110;20.964;2023-02-10T06:06:08;33.10;;;16.48;;
58015;SDS011;43809;52.110;20.964;2023-02-10T06:08:08;31.73;;;15.98;;
58015;SDS011;43809;52.110;20.964;2023-02-10T06:10:08;33.78;;;16.73;;
58015;SDS011;43809;52.110;20.964;2023-02-10T06:14:11;32.93;;;15.73;;
58015;SDS011;43809;52.110;20.964;2023-02-10T06:16:11;57.55;;;18.55;;
58015;SDS011;43809;52.110;20.964;2023-02-10T06:18:11;31.00;;;16.00;;
58015;SDS011;43809;52.110;20.964;2023-02-10T06:20:11;29.80;;;16.23;;
58015;SDS011;43809;52.110;20.964;2023-02-10T06:22:12;38.80;;;17.02;;
58015;SDS011;43809;52.110;20.964;2023-02-10T06:24:12;47.13;;;16.08;;
58015;SDS011;43809;52.110;20.964;2023-02-10T06:26:12;33.55;;;17.40;;
58015;SDS011;43809;52.110;20.964;2023-02-10T06:28:12;32.47;;;16.30;;
58015;SDS011;43809;52.110;20.964;2023-02-10T06:30:14;35.37;;;16.97;;
58015;SDS011;43809;52.110;20.964;2023-02-10T06:32:14;33.00;;;17.45;;
58015;SDS011;43809;52.110;20.964;2023-02-10T06:34:15;30.25;;;16.98;;
58015;SDS011;43809;52.110;20.964;2023-02-10T06:36:15;41.50;;;17.45;;
58015;SDS011;43809;52.110;20.964;2023-02-10T06:38:15;31.92;;;17.10;;
58015;SDS011;43809;52.110;20.964;2023-02-10T06:40:16;36.20;;;16.90;;
58015;SDS011;43809;52.110;20.964;2023-02-10T06:42:16;35.75;;;18.42;;
58015;SDS011;43809;52.110;20.964;2023-02-10T06:44:16;35.17;;;17.38;;
58015;SDS011;43809;52.110;20.964;2023-02-10T06:46:16;59.08;;;18.98;;
58015;SDS011;43809;52.110;20.964;2023-02-10T06:48:17;40.33;;;18.98;;
58015;SDS011;43809;52.110;20.964;2023-02-10T06:50:17;48.75;;;18.15;;
58015;SDS011;43809;52.110;20.964;2023-02-10T06:52:17;35.22;;;17.13;;
58015;SDS011;43809;52.110;20.964;2023-02-10T06:54:17;34.22;;;17.45;;
58015;SDS011;43809;52.110;20.964;2023-02-10T06:56:18;39.25;;;17.60;;
58015;SDS011;43809;52.110;20.964;2023-02-10T06:58:18;32.58;;;17.77;;
58015;SDS011;43809;52.110;20.964;2023-02-10T07:00:19;35.45;;;17.98;;
58015;SDS011;43809;52.110;20.964;2023-02-10T07:02:19;30.20;;;15.70;;
58015;SDS011;43809;52.110;20.964;2023-02-10T07:04:19;33.38;;;17.73;;
58015;SDS011;43809;52.110;20.964;2023-02-10T07:06:20;37.83;;;18.70;;
58015;SDS011;43809;52.110;20.964;2023-02-10T07:08:20;37.67;;;18.27;;
58015;SDS011;43809;52.110;20.964;2023-02-10T07:10:20;33.17;;;17.73;;
58015;SDS011;43809;52.110;20.964;2023-02-10T07:12:21;39.75;;;17.48;;
58015;SDS011;43809;52.110;20.964;2023-02-10T07:14:21;31.75;;;16.83;;
58015;SDS011;43809;52.110;20.964;2023-02-10T07:16:21;33.63;;;17.27;;
58015;SDS011;43809;52.110;20.964;2023-02-10T07:18:21;36.15;;;18.38;;
58015;SDS011;43809;52.110;20.964;2023-02-10T07:20:21;39.47;;;19.23;;
58015;SDS011;43809;52.110;20.964;2023-02-10T07:22:22;37.17;;;18.27;;
58015;SDS011;43809;52.110;20.964;2023-02-10T07:24:22;37.50;;;18.40;;
58015;SDS011;43809;52.110;20.964;2023-02-10T07:26:22;38.45;;;19.45;;
58015;SDS011;43809;52.110;20.964;2023-02-10T07:28:23;36.55;;;17.45;;
58015;SDS011;43809;52.110;20.964;2023-02-10T07:30:23;36.13;;;18.35;;
58015;SDS011;43809;52.110;20.964;2023-02-10T07:32:23;40.65;;;20.00;;
58015;SDS011;43809;52.110;20.964;2023-02-10T07:34:24;31.92;;;17.27;;
58015;SDS011;43809;52.110;20.964;2023-02-10T07:36:24;42.13;;;19.08;;
58015;SDS011;43809;52.110;20.964;2023-02-10T07:38:25;32.38;;;16.92;;
58015;SDS011;43809;52.110;20.964;2023-02-10T07:40:31;35.33;;;17.88;;
58015;SDS011;43809;52.110;20.964;2023-02-10T07:42:31;39.97;;;19.50;;
58015;SDS011;43809;52.110;20.964;2023-02-10T07:44:32;34.80;;;16.98;;
58015;SDS011;43809;52.110;20.964;2023-02-10T07:46:32;32.08;;;17.40;;
58015;SDS011;43809;52.110;20.964;2023-02-10T07:48:32;35.95;;;18.08;;
58015;SDS011;43809;52.110;20.964;2023-02-10T07:50:32;34.47;;;18.77;;
58015;SDS011;43809;52.110;20.964;2023-02-10T07:52:33;35.65;;;18.38;;
58015;SDS011;43809;52.110;20.964;2023-02-10T07:54:33;35.38;;;17.98;;
58015;SDS011;43809;52.110;20.964;2023-02-10T07:56:33;33.70;;;18.20;;
58015;SDS011;43809;52.110;20.964;2023-02-10T07:58:33;36.83;;;18.85;;
58015;SDS011;43809;52.110;20.964;2023-02-10T08:00:39;37.05;;;18.92;;
58015;SDS011;43809;52.110;20.964;2023-02-10T08:02:40;39.08;;;18.17;;
58015;SDS011;43809;52.110;20.964;2023-02-10T08:04:40;33.80;;;17.88;;
58015;SDS011;43809;52.110;20.964;2023-02-10T08:06:40;36.88;;;18.67;;
58015;SDS011;43809;52.110;20.964;2023-02-10T08:08:40;38.47;;;19.25;;
58015;SDS011;43809;52.110;20.964;2023-02-10T08:10:41;37.17;;;18.10;;
58015;SDS011;43809;52.110;20.964;2023-02-10T08:12:41;33.45;;;18.73;;
58015;SDS011;43809;52.110;20.964;2023-02-10T08:14:41;35.72;;;19.15;;
58015;SDS011;43809;52.110;20.964;2023-02-10T08:16:42;70.35;;;22.50;;
58015;SDS011;43809;52.110;20.964;2023-02-10T08:18:42;66.03;;;21.30;;
58015;SDS011;43809;52.110;20.964;2023-02-10T08:20:42;32.95;;;17.13;;
58015;SDS011;43809;52.110;20.964;2023-02-10T08:22:42;31.77;;;15.23;;
58015;SDS011;43809;52.110;20.964;2023-02-10T08:24:42;33.55;;;16.23;;
58015;SDS011;43809;52.110;20.964;2023-02-10T08:26:43;36.10;;;17.52;;
58015;SDS011;43809;52.110;20.964;2023-02-10T08:28:43;30.08;;;14.85;;
58015;SDS011;43809;52.110;20.964;2023-02-10T08:30:44;33.50;;;15.50;;
58015;SDS011;43809;52.110;20.964;2023-02-10T08:32:44;29.60;;;14.27;;
58015;SDS011;43809;52.110;20.964;2023-02-10T08:34:45;46.67;;;16.23;;
58015;SDS011;43809;52.110;20.964;2023-02-10T08:36:45;32.22;;;15.48;;
58015;SDS011;43809;52.110;20.964;2023-02-10T08:38:46;31.33;;;15.10;;
58015;SDS011;43809;52.110;20.964;2023-02-10T08:40:54;30.65;;;14.68;;
58015;SDS011;43809;52.110;20.964;2023-02-10T08:42:54;35.80;;;15.00;;
58015;SDS011;43809;52.110;20.964;2023-02-10T08:44:54;32.03;;;15.48;;
58015;SDS011;43809;52.110;20.964;2023-02-10T08:46:55;35.38;;;15.73;;
58015;SDS011;43809;52.110;20.964;2023-02-10T08:48:55;39.57;;;16.33;;
58015;SDS011;43809;52.110;20.964;2023-02-10T08:50:55;33.42;;;15.40;;
58015;SDS011;43809;52.110;20.964;2023-02-10T08:52:56;32.72;;;15.55;;
58015;SDS011;43809;52.110;20.964;2023-02-10T08:54:57;32.47;;;15.15;;
58015;SDS011;43809;52.110;20.964;2023-02-10T08:56:59;34.35;;;14.90;;
58015;SDS011;43809;52.110;20.964;2023-02-10T08:58:59;31.27;;;14.82;;
58015;SDS011;43809;52.110;20.964;2023-02-10T09:00:59;32.72;;;15.98;;
58015;SDS011;43809;52.110;20.964;2023-02-10T09:03:01;31.75;;;15.15;;
58015;SDS011;43809;52.110;20.964;2023-02-10T09:05:01;30.80;;;15.02;;
58015;SDS011;43809;52.110;20.964;2023-02-10T09:07:01;28.70;;;14.68;;
58015;SDS011;43809;52.110;20.964;2023-02-10T09:09:02;31.73;;;14.70;;
58015;SDS011;43809;52.110;20.964;2023-02-10T09:11:04;31.83;;;15.70;;
58015;SDS011;43809;52.110;20.964;2023-02-10T09:13:05;30.50;;;14.40;;
58015;SDS011;43809;52.110;20.964;2023-02-10T09:15:05;29.95;;;15.07;;
58015;SDS011;43809;52.110;20.964;2023-02-10T09:17:05;33.90;;;15.20;;
58015;SDS011;43809;52.110;20.964;2023-02-10T09:19:08;29.58;;;14.55;;
58015;SDS011;43809;52.110;20.964;2023-02-10T09:21:08;34.80;;;15.90;;
58015;SDS011;43809;52.110;20.964;2023-02-10T09:23:08;39.08;;;16.20;;
58015;SDS011;43809;52.110;20.964;2023-02-10T09:25:09;34.08;;;17.20;;
58015;SDS011;43809;52.110;20.964;2023-02-10T09:27:09;30.77;;;14.85;;
58015;SDS011;43809;52.110;20.964;2023-02-10T09:29:09;30.35;;;15.30;;
58015;SDS011;43809;52.110;20.964;2023-02-10T09:31:11;35.45;;;15.35;;
58015;SDS011;43809;52.110;20.964;2023-02-10T09:33:12;29.52;;;13.93;;
58015;SDS011;43809;52.110;20.964;2023-02-10T09:35:12;29.43;;;14.57;;
58015;SDS011;43809;52.110;20.964;2023-02-10T09:37:12;33.40;;;15.35;;
58015;SDS011;43809;52.110;20.964;2023-02-10T09:39:12;34.65;;;15.88;;
58015;SDS011;43809;52.110;20.964;2023-02-10T09:43:24;35.05;;;15.75;;
58015;SDS011;43809;52.110;20.964;2023-02-10T09:45:28;29.42;;;14.35;;
58015;SDS011;43809;52.110;20.964;2023-02-10T09:49:41;30.30;;;13.43;;
58015;SDS011;43809;52.110;20.964;2023-02-10T09:53:44;27.05;;;13.10;;
58015;SDS011;43809;52.110;20.964;2023-02-10T09:55:52;27.50;;;14.25;;
58015;SDS011;43809;52.110;20.964;2023-02-10T09:57:56;33.08;;;14.93;;
58015;SDS011;43809;52.110;20.964;2023-02-10T09:59:57;29.83;;;14.43;;
58015;SDS011;43809;52.110;20.964;2023-02-10T10:01:59;31.95;;;14.90;;
58015;SDS011;43809;52.110;20.964;2023-02-10T10:10:39;28.88;;;14.27;;
58015;SDS011;43809;52.110;20.964;2023-02-10T10:12:42;33.15;;;16.95;;
58015;SDS011;43809;52.110;20.964;2023-02-10T10:14:45;31.02;;;14.68;;
58015;SDS011;43809;52.110;20.964;2023-02-10T10:17:01;32.70;;;15.50;;
58015;SDS011;43809;52.110;20.964;2023-02-10T10:19:23;28.73;;;14.13;;
58015;SDS011;43809;52.110;20.964;2023-02-10T10:21:32;30.33;;;14.25;;
58015;SDS011;43809;52.110;20.964;2023-02-10T10:30:47;30.38;;;14.18;;
58015;SDS011;43809;52.110;20.964;2023-02-10T10:32:26;28.50;;;13.05;;
58015;SDS011;43809;52.110;20.964;2023-02-10T10:34:31;31.00;;;14.63;;
58015;SDS011;43809;52.110;20.964;2023-02-10T10:36:37;31.73;;;14.70;;
58015;SDS011;43809;52.110;20.964;2023-02-10T10:38:38;35.90;;;15.15;;
58015;SDS011;43809;52.110;20.964;2023-02-10T10:40:42;28.88;;;14.43;;
58015;SDS011;43809;52.110;20.964;2023-02-10T10:42:44;27.13;;;13.02;;
58015;SDS011;43809;52.110;20.964;2023-02-10T10:44:47;31.30;;;14.23;;
58015;SDS011;43809;52.110;20.964;2023-02-10T10:46:52;29.73;;;12.52;;
58015;SDS011;43809;52.110;20.964;2023-02-10T10:48:55;29.02;;;14.48;;
58015;SDS011;43809;52.110;20.964;2023-02-10T10:50:58;30.13;;;14.13;;
58015;SDS011;43809;52.110;20.964;2023-02-10T10:52:59;33.05;;;14.90;;
58015;SDS011;43809;52.110;20.964;2023-02-10T10:55:03;27.00;;;13.50;;
58015;SDS011;43809;52.110;20.964;2023-02-10T10:57:04;33.38;;;14.30;;
58015;SDS011;43809;52.110;20.964;2023-02-10T10:59:15;31.23;;;13.57;;
58015;SDS011;43809;52.110;20.964;2023-02-10T11:01:17;32.17;;;14.55;;
58015;SDS011;43809;52.110;20.964;2023-02-10T11:03:17;28.73;;;14.18;;
58015;SDS011;43809;52.110;20.964;2023-02-10T11:05:18;31.42;;;14.68;;
58015;SDS011;43809;52.110;20.964;2023-02-10T11:07:20;33.67;;;15.20;;
58015;SDS011;43809;52.110;20.964;2023-02-10T11:09:29;30.73;;;14.40;;
58015;SDS011;43809;52.110;20.964;2023-02-10T11:11:32;26.10;;;14.18;;
58015;SDS011;43809;52.110;20.964;2023-02-10T11:13:33;31.55;;;14.35;;
58015;SDS011;43809;52.110;20.964;2023-02-10T11:15:37;32.17;;;13.93;;
58015;SDS011;43809;52.110;20.964;2023-02-10T11:17:40;30.67;;;14.23;;
58015;SDS011;43809;52.110;20.964;2023-02-10T11:19:41;28.67;;;13.93;;
58015;SDS011;43809;52.110;20.964;2023-02-10T11:21:52;23.90;;;12.90;;
58015;SDS011;43809;52.110;20.964;2023-02-10T11:23:53;33.58;;;13.68;;
58015;SDS011;43809;52.110;20.964;2023-02-10T11:27:57;30.70;;;14.02;;
58015;SDS011;43809;52.110;20.964;2023-02-10T11:29:58;27.85;;;13.30;;
58015;SDS011;43809;52.110;20.964;2023-02-10T11:31:58;30.67;;;13.07;;
58015;SDS011;43809;52.110;20.964;2023-02-10T11:36:07;28.08;;;13.35;;
58015;SDS011;43809;52.110;20.964;2023-02-10T11:38:19;40.00;;;15.55;;
58015;SDS011;43809;52.110;20.964;2023-02-10T11:40:21;27.38;;;13.40;;
58015;SDS011;43809;52.110;20.964;2023-02-10T11:44:28;31.48;;;13.95;;
58015;SDS011;43809;52.110;20.964;2023-02-10T11:46:29;33.10;;;14.68;;
58015;SDS011;43809;52.110;20.964;2023-02-10T11:48:30;30.27;;;13.63;;
58015;SDS011;43809;52.110;20.964;2023-02-10T11:50:32;29.35;;;13.70;;
58015;SDS011;43809;52.110;20.964;2023-02-10T11:52:32;32.60;;;14.10;;
58015;SDS011;43809;52.110;20.964;2023-02-10T11:54:34;30.17;;;14.65;;
58015;SDS011;43809;52.110;20.964;2023-02-10T12:03:56;28.30;;;14.10;;
58015;SDS011;43809;52.110;20.964;2023-02-10T12:11:23;30.80;;;13.20;;
58015;SDS011;43809;52.110;20.964;2023-02-10T12:15:53;36.80;;;15.18;;
58015;SDS011;43809;52.110;20.964;2023-02-10T12:28:32;30.52;;;14.52;;
58015;SDS011;43809;52.110;20.964;2023-02-10T12:30:54;31.75;;;15.13;;
58015;SDS011;43809;52.110;20.964;2023-02-10T12:35:03;34.83;;;15.00;;
58015;SDS011;43809;52.110;20.964;2023-02-10T12:41:45;35.83;;;14.85;;
58015;SDS011;43809;52.110;20.964;2023-02-10T12:44:05;34.70;;;15.52;;
58015;SDS011;43809;52.110;20.964;2023-02-10T12:48:31;33.58;;;16.40;;
58015;SDS011;43809;52.110;20.964;2023-02-10T12:52:43;33.67;;;14.43;;
58015;SDS011;43809;52.110;20.964;2023-02-10T12:54:55;36.47;;;15.77;;
58015;SDS011;43809;52.110;20.964;2023-02-10T12:59:00;33.22;;;15.35;;
58015;SDS011;43809;52.110;20.964;2023-02-10T13:05:25;36.95;;;15.25;;
58015;SDS011;43809;52.110;20.964;2023-02-10T13:07:34;34.88;;;15.25;;
58015;SDS011;43809;52.110;20.964;2023-02-10T13:09:39;27.60;;;13.65;;
58015;SDS011;43809;52.110;20.964;2023-02-10T13:11:42;33.45;;;15.52;;
58015;SDS011;43809;52.110;20.964;2023-02-10T13:13:43;36.55;;;16.10;;